Home   Weather   Germany   Sankt Ingbert   Past weeks
Flag for Germany

Past Weather in Sankt Ingbert, Saarland, Germany — Yesterday and Last 2 Weeks

Currently: 61 °F. Clear. (Weather station: Saarbruecken / Ensheim, Germany). See more current weather

Past Weather in Sankt Ingbert — Graph

°F

Sankt Ingbert Temperature Yesterday

Maximum temperature yesterday: 75 °F (at 3:50 pm)
Minimum temperature yesterday: 59 °F (at 1:50 am)
Average temperature yesterday: 66 °F

High & Low Weather Summary for the Past Weeks

 TemperatureHumidityPressure
High81 °F (Jul 18, 3:50 pm)100% (Jul 12, 11:50 pm)30.24 "Hg (Jul 12, 11:50 pm)
Low54 °F (Jul 17, 3:50 am)39% (Jul 23, 4:20 pm)29.80 "Hg (Jul 12, 10:20 am)
Average65 °F78%30.01 "Hg
* Reported Jul 12 4:20 am — Jul 27 4:50 am, Sankt Ingbert. Weather by CustomWeather, © 2021

Note: Actual official high and low records may vary slightly from our data, if they occured in-between our weather recording intervals... More about our weather records

Sankt Ingbert Weather History for the Previous 24 Hours

Scroll right to see more
 ConditionsComfort  
Time TempWeatherWind HumidityBarometerVisibility
4:50 am
Tue, Jul 27
61 °FClear.2 mph88%29.98 "Hg10 mi
4:20 am61 °FClear.3 mph88%29.98 "Hg10 mi
3:50 am61 °FClear.3 mph88%29.98 "Hg10 mi
3:20 am61 °FClear.1 mph88%29.98 "Hg10 mi
2:20 am61 °FClear.6 mph88%29.98 "Hg10 mi
1:50 am61 °FClear.6 mph88%29.98 "Hg10 mi
1:20 am61 °FClear.6 mph94%29.98 "Hg10 mi
12:50 am63 °FClear.6 mph88%29.98 "Hg10 mi
12:20 am64 °FPassing clouds.5 mph83%29.98 "HgN/A
11:50 pm
Mon, Jul 26
64 °FPassing clouds.7 mph83%29.98 "HgN/A
11:20 pm64 °FClear.6 mph83%29.98 "Hg10 mi
10:50 pm63 °FPassing clouds.2 mph88%29.98 "HgN/A
10:20 pm64 °FPassing clouds.3 mph83%29.95 "HgN/A
9:50 pm64 °FClear.6 mph83%29.95 "Hg10 mi
9:20 pm64 °FPassing clouds.3 mph88%29.95 "HgN/A
8:50 pm66 °FPassing clouds.5 mph78%29.92 "HgN/A
8:20 pm68 °FPassing clouds.5 mph78%29.92 "HgN/A
7:50 pm68 °FPassing clouds.7 mph73%29.92 "HgN/A
7:20 pm68 °FThunderstorms. Scattered clouds.10 mph73%29.92 "HgN/A
6:50 pm70 °FThundershowers. Scattered clouds.8 mph69%29.89 "HgN/A
6:20 pm70 °FScattered clouds.9 mph69%29.89 "HgN/A
5:50 pm72 °FScattered clouds.12 mph61%29.92 "HgN/A
5:20 pm73 °FScattered clouds.10 mph57%29.92 "HgN/A
4:50 pm73 °FScattered clouds.12 mph57%29.92 "HgN/A
4:20 pm72 °FScattered clouds.9 mph61%29.89 "HgN/A
3:50 pm75 °FScattered clouds.9 mph61%29.89 "HgN/A
3:20 pm73 °FScattered clouds.13 mph57%29.92 "HgN/A
2:50 pm73 °FScattered clouds.10 mph61%29.92 "HgN/A
2:20 pm72 °FScattered clouds.10 mph65%29.92 "HgN/A
1:50 pm72 °FScattered clouds.8 mph69%29.92 "HgN/A
1:20 pm70 °FScattered clouds.10 mph69%29.92 "HgN/A
12:50 pm70 °FScattered clouds.8 mph69%29.92 "HgN/A
12:20 pm68 °FScattered clouds.10 mph73%29.92 "HgN/A
11:50 am70 °FScattered clouds.9 mph73%29.92 "HgN/A
11:20 am68 °FPassing clouds.7 mph78%29.92 "HgN/A
10:50 am68 °FPassing clouds.7 mph78%29.92 "HgN/A
10:20 am66 °FPassing clouds.8 mph83%29.92 "HgN/A
9:50 am66 °FPassing clouds.7 mph83%29.92 "HgN/A
8:50 am64 °FPassing clouds.3 mph83%29.92 "HgN/A
8:20 am63 °FSunny.2 mph88%29.89 "Hg10 mi
7:50 am61 °FSunny.2 mph94%29.89 "Hg10 mi
7:20 am61 °FSunny.1 mph94%29.89 "Hg10 mi
6:50 am61 °FSunny.2 mph88%29.89 "Hg10 mi
6:20 am59 °FSunny.6 mph94%29.89 "Hg10 mi
5:50 am59 °FPassing clouds.3 mph94%29.89 "HgN/A
5:20 am61 °FClear.5 mph94%29.89 "Hg10 mi
Weather by CustomWeather, © 2021

See weather overview